METAR Data
IDs: Format: Raw Decoded Include TAF

Data at: 0225 UTC 20 Jan 2022

KRCV 200215Z AUTO 25007KT 10SM BKN060 BKN070 OVC090 M01/M05 A3011 RMK AO2 T10101046
KRCV 200155Z AUTO 25008KT 10SM SCT080 SCT090 M01/M05 A3010 RMK AO2 T10151046
KRCV 200135Z AUTO 28011KT 10SM SCT065 M01/M04 A3009 RMK AO2 T10101040
KRCV 200115Z AUTO 27008KT 10SM SCT048 SCT065 SCT080 M01/M05 A3008 RMK AO2 T10101055
KRCV 200055Z AUTO 25007KT 10SM BKN050 00/M06 A3008 RMK AO2 T00001063
KRCV 200035Z AUTO 30003KT 10SM OVC050 01/M07 A3007 RMK AO2 T00101066
KRCV 200015Z AUTO 36008KT 10SM OVC050 02/M06 A3007 RMK AO2 T00151061
KRCV 192355Z AUTO 01009KT 10SM SCT049 BKN060 02/M06 A3006 RMK AO2 T00161062 10051 20012
KRCV 192335Z AUTO 01010KT 10SM SCT018 SCT025 SCT035 01/M06 A3005 RMK AO2 T00131057
KRCV 192315Z AUTO 01010G18KT 10SM SCT026 BKN035 OVC050 02/M06 A3005 RMK AO2 T00211062
KRCV 192255Z AUTO 06007KT 10SM SCT049 BKN060 OVC085 05/M10 A3005 RMK AO2 T00451097
KRCV 192235Z AUTO 08007KT 10SM SCT070 BKN100 BKN120 05/M09 A3004 RMK AO2 T00461095
KRCV 192215Z AUTO 10008KT 10SM BKN070 OVC085 05/M09 A3003 RMK AO2 T00461095
KRCV 192155Z AUTO 10008KT 10SM SCT080 BKN095 BKN120 05/M09 A3003 RMK AO2 T00461095
KRCV 192135Z AUTO 11010KT 10SM SCT120 05/M09 A3003 RMK AO2 T00461095
KRCV 192115Z AUTO 08009KT 10SM CLR 04/M10 A3002 RMK AO2 T00431097
KRCV 192055Z AUTO 10008KT 10SM CLR 04/M10 A3003 RMK AO2 T00431098
KRCV 192035Z AUTO 11005KT 10SM CLR 04/M10 A3003 RMK AO2 T00421097
KRCV 192015Z AUTO 10007KT 070V130 10SM CLR 05/M10 A3003 RMK AO2 T00451096
KRCV 191955Z AUTO 11010KT 10SM CLR 04/M09 A3003 RMK AO2 T00431095
KRCV 191935Z AUTO 09006KT 10SM CLR 04/M09 A3003 RMK AO2 T00401095
KRCV 191915Z AUTO 09008KT 10SM CLR 04/M09 A3004 RMK AO2 T00391095
KRCV 191855Z AUTO 09007KT 10SM CLR 04/M09 A3005 RMK AO2 T00371095
KRCV 191835Z AUTO 12005KT 10SM CLR 04/M08 A3005 RMK AO2 T00401082
KRCV 191815Z AUTO 12004KT 10SM CLR 03/M08 A3007 RMK AO2 T00341084
KRCV 191755Z AUTO 00000KT 10SM CLR 03/M08 A3007 RMK AO2 T00261085 10026 21040
KRCV 191735Z AUTO 27003KT 10SM CLR 02/M08 A3008 RMK AO2 T00231085
KRCV 191715Z AUTO 28004KT 10SM CLR 02/M08 A3008 RMK AO2 T00191082
KRCV 191655Z AUTO 26004KT 10SM CLR 01/M08 A3008 RMK AO2 T00111082
KRCV 191635Z AUTO 25006KT 10SM CLR 00/M08 A3008 RMK AO2 T00021085
KRCV 191615Z AUTO 28005KT 10SM CLR 00/M09 A3008 RMK AO2 T10031088
KRCV 191555Z AUTO 26007KT 10SM CLR M02/M09 A3008 RMK AO2 T10161091
KRCV 191535Z AUTO 26004KT 10SM CLR M03/M10 A3008 RMK AO2 T10291096
KRCV 191515Z AUTO 23004KT 10SM CLR M03/M09 A3007 RMK AO2 T10291093
KRCV 191455Z AUTO 25005KT 10SM CLR M04/M09 A3006 RMK AO2 T10361094
KRCV 191435Z AUTO 28006KT 10SM CLR M03/M09 A3005 RMK AO2 T10321093
KRCV 191415Z AUTO 28009KT 10SM SCT120 M04/M09 A3005 RMK AO2 T10371094
KRCV 191355Z AUTO 28011KT 10SM SCT100 M03/M09 A3004 RMK AO2 T10331092
KRCV 191335Z AUTO 28011KT 10SM BKN100 M03/M09 A3003 RMK AO2 T10351091
KRCV 191315Z AUTO 28011KT 10SM BKN100 M03/M09 A3003 RMK AO2 T10301089
KRCV 191255Z AUTO 27010KT 10SM CLR M03/M09 A3003 RMK AO2 T10331091
KRCV 191235Z AUTO 28010KT 10SM SCT100 M03/M09 A3002 RMK AO2 T10321090
KRCV 191215Z AUTO 28009KT 10SM SCT100 M04/M09 A3002 RMK AO2 T10361090
KRCV 191155Z AUTO 26009KT 10SM CLR M03/M09 A3002 RMK AO2 T10331090 10010 21033
KRCV 191135Z AUTO 27010KT 10SM CLR M02/M09 A3002 RMK AO2 T10251087
KRCV 191115Z AUTO 27009KT 10SM CLR M02/M08 A3002 RMK AO2 T10251085
KRCV 191055Z AUTO 27007KT 10SM SCT110 M02/M08 A3002 RMK AO2 T10231082
KRCV 191035Z AUTO 28007KT 10SM SCT110 M02/M09 A3002 RMK AO2 T10251086
KRCV 191015Z AUTO 29008KT 10SM SCT110 M02/M09 A3001 RMK AO2 T10251086
KRCV 190955Z AUTO 28008KT 10SM SCT110 M02/M08 A3001 RMK AO2 T10221084
KRCV 190935Z AUTO 27008KT 10SM SCT065 SCT120 M02/M08 A3001 RMK AO2 T10231084
KRCV 190915Z AUTO 27009KT 10SM SCT065 BKN110 M02/M08 A3000 RMK AO2 T10201085
KRCV 190855Z AUTO 28008KT 10SM SCT065 OVC110 M01/M09 A3000 RMK AO2 T10151086
KRCV 190835Z AUTO 29007KT 10SM SCT065 BKN120 M01/M08 A3000 RMK AO2 T10121085
KRCV 190815Z AUTO 28007KT 10SM SCT110 M01/M09 A3000 RMK AO2 T10141086
KRCV 190755Z AUTO 28006KT 10SM SCT090 M01/M09 A3000 RMK AO2 T10101086
KRCV 190735Z AUTO 25006KT 10SM OVC100 00/M09 A2999 RMK AO2 T10041086
KRCV 190715Z AUTO 26008KT 10SM OVC110 00/M08 A2999 RMK AO2 T00021079
KRCV 190655Z AUTO 26010G14KT 10SM OVC110 01/M07 A2999 RMK AO2 T00081075 400701084
KRCV 190635Z AUTO 26010KT 10SM OVC110 01/M08 A2999 RMK AO2 T00051084
KRCV 190615Z AUTO 25010KT 10SM SCT100 OVC120 01/M08 A3000 RMK AO2 T00071082
KRCV 190555Z AUTO 26008KT 10SM BKN100 OVC120 01/M07 A2999 RMK AO2 T00111071 10040 20002
KRCV 190535Z AUTO 27007KT 10SM OVC110 01/M08 A2999 RMK AO2 T00131077
KRCV 190515Z AUTO 28007KT 10SM SCT090 OVC110 02/M09 A2998 RMK AO2 T00161094
KRCV 190455Z AUTO 27008KT 10SM OVC090 02/M10 A2998 RMK AO2 T00151101
KRCV 190435Z AUTO 27009KT 10SM BKN100 OVC120 02/M10 A2998 RMK AO2 T00151103
KRCV 190415Z AUTO 27010KT 10SM BKN120 02/M10 A2998 RMK AO2 T00151103
KRCV 190355Z AUTO 24007KT 10SM CLR 00/M11 A2998 RMK AO2 T00021110
KRCV 190335Z AUTO 26007KT 10SM SCT090 SCT120 02/M11 A2998 RMK AO2 T00151110
KRCV 190315Z AUTO 27009KT 10SM OVC100 02/M11 A2997 RMK AO2 T00171115
KRCV 190255Z AUTO 28011KT 10SM BKN100 OVC120 02/M11 A2996 RMK AO2 T00201115
KRCV 190235Z AUTO 27010KT 10SM OVC110 02/M12 A2996 RMK AO2 T00221120
KRCV 190215Z AUTO 26007KT 10SM SCT095 OVC110 01/M15 A2996 RMK AO2 T00121149
KRCV 190155Z AUTO 27007KT 10SM OVC100 01/M17 A2996 RMK AO2 T00081168
KRCV 190135Z AUTO 00000KT 10SM OVC100 01/M19 A2996 RMK AO2 T00061187
KRCV 190115Z AUTO 00000KT 10SM OVC100 03/M18 A2995 RMK AO2 T00261185
KRCV 190055Z AUTO 00000KT 10SM OVC110 02/M19 A2995 RMK AO2 T00201186
KRCV 190035Z AUTO 00000KT 10SM OVC110 02/M19 A2995 RMK AO2 T00221186
KRCV 190015Z AUTO 00000KT 10SM OVC110 04/M18 A2995 RMK AO2 T00351182
KRCV 182355Z AUTO 00000KT 10SM OVC120 04/M18 A2995 RMK AO2 T00401178 10070 20030
KRCV 182335Z AUTO 00000KT 10SM BKN120 05/M18 A2995 RMK AO2 T00451180
KRCV 182315Z AUTO 10003KT 10SM CLR 05/M18 A2994 RMK AO2 T00471177
KRCV 182255Z AUTO 12007KT 10SM CLR 05/M18 A2994 RMK AO2 T00481177
KRCV 182235Z AUTO 11008KT 10SM CLR 05/M18 A2994 RMK AO2 T00501181
KRCV 182215Z AUTO 12008KT 10SM CLR 06/M18 A2993 RMK AO2 T00591178
KRCV 182155Z AUTO 11008KT 10SM CLR 06/M18 A2993 RMK AO2 T00551182
KRCV 182135Z AUTO 10008KT 10SM SCT120 07/M18 A2993 RMK AO2 T00681177
KRCV 182115Z AUTO 12005KT 10SM SCT120 07/M18 A2993 RMK AO2 T00661177
KRCV 182055Z AUTO 11010KT 10SM CLR 06/M18 A2994 RMK AO2 T00641176
KRCV 182035Z AUTO 10007G16KT 10SM CLR 07/M19 A2994 RMK AO2 T00671186
KRCV 182015Z AUTO 11006KT 10SM CLR 06/M18 A2995 RMK AO2 T00601183
KRCV 181955Z AUTO 08005KT 10SM CLR 06/M18 A2995 RMK AO2 T00581185
KRCV 181935Z AUTO 12006KT 10SM CLR 05/M19 A2996 RMK AO2 T00531193
KRCV 181915Z AUTO 14003KT 10SM CLR 05/M19 A2997 RMK AO2 T00461194
KRCV 181855Z AUTO 12004KT 10SM CLR 04/M18 A2998 RMK AO2 T00421177
KRCV 181835Z AUTO 10003KT 10SM CLR 04/M17 A3000 RMK AO2 T00351174
KRCV 181815Z AUTO 09005KT 10SM CLR 04/M17 A3002 RMK AO2 T00351175
KRCV 181755Z AUTO 08006KT 10SM CLR 03/M17 A3002 RMK AO2 T00331175 10033 21084
KRCV 181735Z AUTO 00000KT 10SM CLR 03/M17 A3003 RMK AO2 T00251173
KRCV 181715Z AUTO 27004KT 10SM CLR 02/M16 A3003 RMK AO2 T00201164
KRCV 181655Z AUTO 27008KT 10SM CLR 01/M16 A3003 RMK AO2 T00081157
KRCV 181635Z AUTO 26011KT 10SM CLR 00/M15 A3003 RMK AO2 T00011155
KRCV 181615Z AUTO 27010KT 10SM CLR M01/M16 A3003 RMK AO2 T10101160
KRCV 181555Z AUTO 26013KT 10SM CLR M02/M16 A3002 RMK AO2 T10211157
KRCV 181535Z AUTO 27014KT 10SM CLR M03/M16 A3002 RMK AO2 T10341157
KRCV 181515Z AUTO 27013KT 10SM CLR M04/M16 A3002 RMK AO2 T10421160
KRCV 181455Z AUTO 27014KT 10SM CLR M05/M16 A3002 RMK AO2 T10481164
KRCV 181435Z AUTO 28014KT 10SM CLR M05/M16 A3002 RMK AO2 T10511163